Maersk Drummond — A8JF3 — position and weather

sailwx.info

Track history (hours):
 
Tides and Currents Weather Stations Pressure Air Temp Water Temp Dewpoint Dewpoint Depression Visibility Wind Speed Wind Dir Waves Ship Positions

Maersk Drummond

Last reported at 2018-Apr-25 03:00 UTC. Time now 2018-Apr-25 03:02 UTC.
Position S 27°22' E 153°11'.

Length 294 m; draft 11.7 m.

Type: Ship (hazmat cat A). MMSI: 636091082.

Date/timePositionNaut miles runAvg speedWind from/ knotsBaromVisibWave heightAir tempDewpointWater temp
2018-Apr-25 03:00S 27°22' E 153°11'0 0.0
2018-Apr-25 02:30S 27°22' E 153°11'0 0.0
2018-Apr-25 02:00S 27°22' E 153°11'0 0.0
2018-Apr-25 01:30S 27°22' E 153°11'0 0.0
2018-Apr-25 01:00S 27°22' E 153°11'0 0.0
2018-Apr-25 00:30S 27°22' E 153°11'0 0.0
2018-Apr-25 00:00S 27°22' E 153°11'0 0.0
2018-Apr-24 23:30S 27°22' E 153°11'0 0.0
2018-Apr-24 23:00S 27°22' E 153°11'0 0.0
2018-Apr-24 22:30S 27°22' E 153°11'0 0.0
2018-Apr-24 22:00S 27°22' E 153°11'0 0.0
2018-Apr-24 21:30S 27°22' E 153°11'0 0.0
2018-Apr-24 21:00S 27°22' E 153°11'0 0.0
2018-Apr-24 20:30S 27°22' E 153°11'0 0.0
2018-Apr-24 20:01S 27°22' E 153°11'1 2.7
2018-Apr-24 19:30S 27°20' E 153°11'613.0
2018-Apr-24 19:00S 27°16' E 153°16'611.9
2018-Apr-24 18:30S 27°11' E 153°21'916.1
2018-Apr-24 17:59S 27°03' E 153°18'816.8
2018-Apr-24 17:31S 26°57' E 153°13'815.6
2018-Apr-24 17:01S 26°49' E 153°09'612.0
2018-Apr-24 16:28S 26°43' E 153°12'4 9.0
2018-Apr-24 16:00S 26°45' E 153°16'816.8
2018-Apr-24 15:30S 26°48' E 153°25'1117.5
2018-Apr-24 14:54S 26°51' E 153°36'718.2
2018-Apr-24 14:30S 26°55' E 153°43'1017.9
2018-Apr-24 13:57S 26°60' E 153°53'  
2018-Apr-21 18:47S 35°51' E 175°24'717.6
2018-Apr-21 18:22S 35°57' E 175°30'617.7
2018-Apr-21 18:00S 36°02' E 175°35'9516.9
2018-Apr-21 12:23S 37°32' E 176°14'512.6
2018-Apr-21 12:00S 37°36' E 176°11'4 7.7
2018-Apr-21 11:30S 37°40' E 176°11'0 0.1
2018-Apr-21 10:58S 37°40' E 176°11'0 0.0
2018-Apr-21 10:28S 37°40' E 176°11'0 0.0
2018-Apr-21 09:52S 37°40' E 176°11'0 0.0
2018-Apr-21 09:28S 37°40' E 176°11'0 0.0
2018-Apr-21 08:55S 37°40' E 176°11'0 0.0
2018-Apr-21 08:28S 37°40' E 176°11'0 0.0
2018-Apr-21 07:58S 37°40' E 176°11'0 0.0
2018-Apr-21 07:28S 37°40' E 176°11'0 0.0
2018-Apr-21 06:55S 37°40' E 176°11'0 0.0
2018-Apr-21 06:28S 37°40' E 176°11'0 0.0
2018-Apr-21 05:58S 37°40' E 176°11'0 0.0
2018-Apr-21 05:28S 37°40' E 176°11'0 0.0
2018-Apr-21 04:58S 37°40' E 176°11'0 0.0
2018-Apr-21 04:25S 37°40' E 176°11'0 0.0
2018-Apr-21 03:58S 37°40' E 176°11'0 0.0
2018-Apr-21 03:28S 37°40' E 176°11'0 0.0
2018-Apr-21 02:52S 37°40' E 176°11'0 0.0
2018-Apr-21 02:28S 37°40' E 176°11'0 0.0
2018-Apr-21 01:58S 37°40' E 176°11'0 0.0
2018-Apr-21 01:16S 37°40' E 176°11'0 0.0
2018-Apr-21 00:46S 37°40' E 176°11'0 0.0
2018-Apr-21 00:25S 37°40' E 176°11'0 0.0
2018-Apr-20 23:58S 37°40' E 176°11'0 0.0
2018-Apr-20 23:25S 37°40' E 176°11'0 0.0
2018-Apr-20 22:37S 37°40' E 176°11'0 0.0
2018-Apr-20 22:25S 37°40' E 176°11'0 0.0
2018-Apr-20 21:52S 37°40' E 176°11'0 0.0
2018-Apr-20 21:28S 37°40' E 176°11'0 0.0
2018-Apr-20 20:58S 37°40' E 176°11'0 0.0
2018-Apr-20 20:28S 37°40' E 176°11'0 0.0
2018-Apr-20 19:58S 37°40' E 176°11'0 0.0
2018-Apr-20 19:28S 37°40' E 176°11'0 0.0
2018-Apr-20 18:58S 37°40' E 176°11'0 0.0
2018-Apr-20 18:28S 37°40' E 176°11'0 0.1
2018-Apr-20 18:01S 37°40' E 176°11'2 3.6
2018-Apr-20 17:30S 37°38' E 176°10'5 9.3
2018-Apr-20 17:00S 37°34' E 176°13'  
Track history (hours):
 
Tides and Currents Weather Stations Pressure Air Temp Water Temp Dewpoint Dewpoint Depression Visibility Wind Speed Wind Dir Waves Ship Positions

Maersk Drummond

Last reported at 2018-Apr-25 03:00 UTC. Time now 2018-Apr-25 03:02 UTC.
Position S 27°22' E 153°11'.

Length 294 m; draft 11.7 m.

Type: Ship (hazmat cat A). MMSI: 636091082.

Date/timePositionNaut miles runAvg speedWind from/ knotsBaromVisibWave heightAir tempDewpointWater temp
2018-Apr-25 03:00S 27°22' E 153°11'0 0.0
2018-Apr-25 02:30S 27°22' E 153°11'0 0.0
2018-Apr-25 02:00S 27°22' E 153°11'0 0.0
2018-Apr-25 01:30S 27°22' E 153°11'0 0.0
2018-Apr-25 01:00S 27°22' E 153°11'0 0.0
2018-Apr-25 00:30S 27°22' E 153°11'0 0.0
2018-Apr-25 00:00S 27°22' E 153°11'0 0.0
2018-Apr-24 23:30S 27°22' E 153°11'0 0.0
2018-Apr-24 23:00S 27°22' E 153°11'0 0.0
2018-Apr-24 22:30S 27°22' E 153°11'0 0.0
2018-Apr-24 22:00S 27°22' E 153°11'0 0.0
2018-Apr-24 21:30S 27°22' E 153°11'0 0.0
2018-Apr-24 21:00S 27°22' E 153°11'0 0.0
2018-Apr-24 20:30S 27°22' E 153°11'0 0.0
2018-Apr-24 20:01S 27°22' E 153°11'1 2.7
2018-Apr-24 19:30S 27°20' E 153°11'613.0
2018-Apr-24 19:00S 27°16' E 153°16'611.9
2018-Apr-24 18:30S 27°11' E 153°21'916.1
2018-Apr-24 17:59S 27°03' E 153°18'816.8
2018-Apr-24 17:31S 26°57' E 153°13'815.6
2018-Apr-24 17:01S 26°49' E 153°09'612.0
2018-Apr-24 16:28S 26°43' E 153°12'4 9.0
2018-Apr-24 16:00S 26°45' E 153°16'816.8
2018-Apr-24 15:30S 26°48' E 153°25'1117.5
2018-Apr-24 14:54S 26°51' E 153°36'718.2
2018-Apr-24 14:30S 26°55' E 153°43'1017.9
2018-Apr-24 13:57S 26°60' E 153°53'  
2018-Apr-21 18:47S 35°51' E 175°24'717.6
2018-Apr-21 18:22S 35°57' E 175°30'617.7
2018-Apr-21 18:00S 36°02' E 175°35'9516.9
2018-Apr-21 12:23S 37°32' E 176°14'512.6
2018-Apr-21 12:00S 37°36' E 176°11'4 7.7
2018-Apr-21 11:30S 37°40' E 176°11'0 0.1
2018-Apr-21 10:58S 37°40' E 176°11'0 0.0
2018-Apr-21 10:28S 37°40' E 176°11'0 0.0
2018-Apr-21 09:52S 37°40' E 176°11'0 0.0
2018-Apr-21 09:28S 37°40' E 176°11'0 0.0
2018-Apr-21 08:55S 37°40' E 176°11'0 0.0
2018-Apr-21 08:28S 37°40' E 176°11'0 0.0
2018-Apr-21 07:58S 37°40' E 176°11'0 0.0
2018-Apr-21 07:28S 37°40' E 176°11'0 0.0
2018-Apr-21 06:55S 37°40' E 176°11'0 0.0
2018-Apr-21 06:28S 37°40' E 176°11'0 0.0
2018-Apr-21 05:58S 37°40' E 176°11'0 0.0
2018-Apr-21 05:28S 37°40' E 176°11'0 0.0
2018-Apr-21 04:58S 37°40' E 176°11'0 0.0
2018-Apr-21 04:25S 37°40' E 176°11'0 0.0
2018-Apr-21 03:58S 37°40' E 176°11'0 0.0
2018-Apr-21 03:28S 37°40' E 176°11'0 0.0
2018-Apr-21 02:52S 37°40' E 176°11'0 0.0
2018-Apr-21 02:28S 37°40' E 176°11'0 0.0
2018-Apr-21 01:58S 37°40' E 176°11'0 0.0
2018-Apr-21 01:16S 37°40' E 176°11'0 0.0
2018-Apr-21 00:46S 37°40' E 176°11'0 0.0
2018-Apr-21 00:25S 37°40' E 176°11'0 0.0
2018-Apr-20 23:58S 37°40' E 176°11'0 0.0
2018-Apr-20 23:25S 37°40' E 176°11'0 0.0
2018-Apr-20 22:37S 37°40' E 176°11'0 0.0
2018-Apr-20 22:25S 37°40' E 176°11'0 0.0
2018-Apr-20 21:52S 37°40' E 176°11'0 0.0
2018-Apr-20 21:28S 37°40' E 176°11'0 0.0
2018-Apr-20 20:58S 37°40' E 176°11'0 0.0
2018-Apr-20 20:28S 37°40' E 176°11'0 0.0
2018-Apr-20 19:58S 37°40' E 176°11'0 0.0
2018-Apr-20 19:28S 37°40' E 176°11'0 0.0
2018-Apr-20 18:58S 37°40' E 176°11'0 0.0
2018-Apr-20 18:28S 37°40' E 176°11'0 0.1
2018-Apr-20 18:01S 37°40' E 176°11'2 3.6
2018-Apr-20 17:30S 37°38' E 176°10'5 9.3
2018-Apr-20 17:00S 37°34' E 176°13'  

Dump ship's entire track history